sensor_id;sensor_type;location;lat;lon;timestamp;P1;durP1;ratioP1;P2;durP2;ratioP2
25153;SDS011;47555;51.038;6.280;2022-11-27T00:01:26;14.68;;;5.57;;
25153;SDS011;47555;51.038;6.280;2022-11-27T00:03:53;10.40;;;4.90;;
25153;SDS011;47555;51.038;6.280;2022-11-27T00:06:20;14.63;;;6.30;;
25153;SDS011;47555;51.038;6.280;2022-11-27T00:08:47;10.10;;;4.55;;
25153;SDS011;47555;51.038;6.280;2022-11-27T00:11:14;8.60;;;4.80;;
25153;SDS011;47555;51.038;6.280;2022-11-27T00:13:47;17.95;;;5.47;;
25153;SDS011;47555;51.038;6.280;2022-11-27T00:16:16;9.55;;;4.53;;
25153;SDS011;47555;51.038;6.280;2022-11-27T00:18:42;12.93;;;5.63;;
25153;SDS011;47555;51.038;6.280;2022-11-27T00:21:10;14.63;;;4.60;;
25153;SDS011;47555;51.038;6.280;2022-11-27T00:23:41;12.60;;;5.30;;
25153;SDS011;47555;51.038;6.280;2022-11-27T00:26:07;12.68;;;4.68;;
25153;SDS011;47555;51.038;6.280;2022-11-27T00:28:33;13.40;;;5.05;;
25153;SDS011;47555;51.038;6.280;2022-11-27T00:30:59;11.82;;;4.80;;
25153;SDS011;47555;51.038;6.280;2022-11-27T00:33:26;12.40;;;4.28;;
25153;SDS011;47555;51.038;6.280;2022-11-27T00:35:51;8.82;;;4.22;;
25153;SDS011;47555;51.038;6.280;2022-11-27T00:38:17;10.40;;;4.20;;
25153;SDS011;47555;51.038;6.280;2022-11-27T00:40:44;12.82;;;4.57;;
25153;SDS011;47555;51.038;6.280;2022-11-27T00:43:10;9.38;;;3.60;;
25153;SDS011;47555;51.038;6.280;2022-11-27T00:45:36;8.93;;;4.32;;
25153;SDS011;47555;51.038;6.280;2022-11-27T00:48:01;12.00;;;3.40;;
25153;SDS011;47555;51.038;6.280;2022-11-27T00:50:27;8.93;;;3.22;;
25153;SDS011;47555;51.038;6.280;2022-11-27T00:52:55;10.27;;;3.80;;
25153;SDS011;47555;51.038;6.280;2022-11-27T00:55:24;9.52;;;3.72;;
25153;SDS011;47555;51.038;6.280;2022-11-27T00:57:50;9.23;;;4.10;;
25153;SDS011;47555;51.038;6.280;2022-11-27T01:00:16;10.45;;;3.42;;
25153;SDS011;47555;51.038;6.280;2022-11-27T01:02:42;7.32;;;2.83;;
25153;SDS011;47555;51.038;6.280;2022-11-27T01:05:08;9.27;;;3.33;;
25153;SDS011;47555;51.038;6.280;2022-11-27T01:07:33;11.05;;;3.17;;
25153;SDS011;47555;51.038;6.280;2022-11-27T01:09:59;6.85;;;3.13;;
25153;SDS011;47555;51.038;6.280;2022-11-27T01:12:24;13.57;;;3.42;;
25153;SDS011;47555;51.038;6.280;2022-11-27T01:14:50;6.15;;;2.35;;
25153;SDS011;47555;51.038;6.280;2022-11-27T01:17:15;6.60;;;3.03;;
25153;SDS011;47555;51.038;6.280;2022-11-27T01:19:41;10.75;;;3.35;;
25153;SDS011;47555;51.038;6.280;2022-11-27T01:22:06;6.22;;;3.03;;
25153;SDS011;47555;51.038;6.280;2022-11-27T01:24:32;12.38;;;3.40;;
25153;SDS011;47555;51.038;6.280;2022-11-27T01:27:00;7.10;;;3.30;;
25153;SDS011;47555;51.038;6.280;2022-11-27T01:29:26;16.85;;;3.30;;
25153;SDS011;47555;51.038;6.280;2022-11-27T01:31:51;10.40;;;3.42;;
25153;SDS011;47555;51.038;6.280;2022-11-27T01:34:17;12.02;;;2.78;;
25153;SDS011;47555;51.038;6.280;2022-11-27T01:36:43;6.00;;;3.10;;
25153;SDS011;47555;51.038;6.280;2022-11-27T01:39:13;9.90;;;3.22;;
25153;SDS011;47555;51.038;6.280;2022-11-27T01:41:41;7.53;;;3.25;;
25153;SDS011;47555;51.038;6.280;2022-11-27T01:46:47;7.32;;;3.00;;
25153;SDS011;47555;51.038;6.280;2022-11-27T01:49:34;8.60;;;2.92;;
25153;SDS011;47555;51.038;6.280;2022-11-27T01:52:06;13.40;;;3.10;;
25153;SDS011;47555;51.038;6.280;2022-11-27T01:55:15;11.13;;;3.17;;
25153;SDS011;47555;51.038;6.280;2022-11-27T01:57:59;11.10;;;3.65;;
25153;SDS011;47555;51.038;6.280;2022-11-27T02:00:29;14.73;;;3.53;;
25153;SDS011;47555;51.038;6.280;2022-11-27T02:02:54;10.52;;;3.50;;
25153;SDS011;47555;51.038;6.280;2022-11-27T02:05:21;6.22;;;3.28;;
25153;SDS011;47555;51.038;6.280;2022-11-27T02:07:50;12.13;;;3.80;;
25153;SDS011;47555;51.038;6.280;2022-11-27T02:10:22;8.15;;;3.00;;
25153;SDS011;47555;51.038;6.280;2022-11-27T02:29:27;10.07;;;3.92;;
25153;SDS011;47555;51.038;6.280;2022-11-27T02:31:58;12.55;;;5.50;;
25153;SDS011;47555;51.038;6.280;2022-11-27T02:40:15;10.27;;;4.70;;
25153;SDS011;47555;51.038;6.280;2022-11-27T02:42:49;7.65;;;3.83;;
25153;SDS011;47555;51.038;6.280;2022-11-27T02:45:34;11.25;;;4.35;;
25153;SDS011;47555;51.038;6.280;2022-11-27T02:48:06;11.57;;;4.32;;
25153;SDS011;47555;51.038;6.280;2022-11-27T02:50:35;9.60;;;4.40;;
25153;SDS011;47555;51.038;6.280;2022-11-27T02:53:03;14.10;;;4.30;;
25153;SDS011;47555;51.038;6.280;2022-11-27T02:55:33;12.95;;;4.40;;
25153;SDS011;47555;51.038;6.280;2022-11-27T02:58:03;9.75;;;4.20;;
25153;SDS011;47555;51.038;6.280;2022-11-27T03:00:32;13.25;;;4.70;;
25153;SDS011;47555;51.038;6.280;2022-11-27T03:03:02;13.50;;;4.90;;
25153;SDS011;47555;51.038;6.280;2022-11-27T03:05:31;10.80;;;4.90;;
25153;SDS011;47555;51.038;6.280;2022-11-27T03:10:58;17.92;;;6.30;;
25153;SDS011;47555;51.038;6.280;2022-11-27T03:13:44;11.63;;;5.18;;
25153;SDS011;47555;51.038;6.280;2022-11-27T03:16:18;14.52;;;5.10;;
25153;SDS011;47555;51.038;6.280;2022-11-27T03:21:45;13.77;;;5.60;;
25153;SDS011;47555;51.038;6.280;2022-11-27T03:24:17;13.10;;;5.68;;
25153;SDS011;47555;51.038;6.280;2022-11-27T03:26:43;14.02;;;5.95;;
25153;SDS011;47555;51.038;6.280;2022-11-27T03:29:16;14.68;;;6.38;;
25153;SDS011;47555;51.038;6.280;2022-11-27T03:32:02;16.80;;;6.30;;
25153;SDS011;47555;51.038;6.280;2022-11-27T03:34:29;13.68;;;5.70;;
25153;SDS011;47555;51.038;6.280;2022-11-27T03:36:55;17.17;;;6.13;;
25153;SDS011;47555;51.038;6.280;2022-11-27T03:39:21;16.63;;;6.40;;
25153;SDS011;47555;51.038;6.280;2022-11-27T03:41:57;18.10;;;6.80;;
25153;SDS011;47555;51.038;6.280;2022-11-27T03:55:47;15.57;;;6.28;;
25153;SDS011;47555;51.038;6.280;2022-11-27T03:58:31;12.52;;;5.43;;
25153;SDS011;47555;51.038;6.280;2022-11-27T04:01:02;13.13;;;5.50;;
25153;SDS011;47555;51.038;6.280;2022-11-27T04:03:30;14.18;;;5.65;;
25153;SDS011;47555;51.038;6.280;2022-11-27T04:05:55;10.68;;;5.57;;
25153;SDS011;47555;51.038;6.280;2022-11-27T04:08:21;10.48;;;5.32;;
25153;SDS011;47555;51.038;6.280;2022-11-27T04:10:47;14.82;;;5.57;;
25153;SDS011;47555;51.038;6.280;2022-11-27T04:13:13;10.00;;;5.47;;
25153;SDS011;47555;51.038;6.280;2022-11-27T04:15:38;13.20;;;5.82;;
25153;SDS011;47555;51.038;6.280;2022-11-27T04:18:04;20.65;;;5.75;;
25153;SDS011;47555;51.038;6.280;2022-11-27T04:20:30;11.48;;;6.10;;
25153;SDS011;47555;51.038;6.280;2022-11-27T04:22:55;16.77;;;6.90;;
25153;SDS011;47555;51.038;6.280;2022-11-27T04:25:21;15.95;;;5.82;;
25153;SDS011;47555;51.038;6.280;2022-11-27T04:27:47;14.88;;;6.32;;
25153;SDS011;47555;51.038;6.280;2022-11-27T04:30:13;12.35;;;5.25;;
25153;SDS011;47555;51.038;6.280;2022-11-27T04:32:39;14.23;;;6.10;;
25153;SDS011;47555;51.038;6.280;2022-11-27T04:35:05;15.05;;;6.85;;
25153;SDS011;47555;51.038;6.280;2022-11-27T04:37:31;16.30;;;5.78;;
25153;SDS011;47555;51.038;6.280;2022-11-27T04:39:56;12.60;;;6.80;;
25153;SDS011;47555;51.038;6.280;2022-11-27T04:42:22;18.73;;;5.80;;
25153;SDS011;47555;51.038;6.280;2022-11-27T04:44:47;12.02;;;5.93;;
25153;SDS011;47555;51.038;6.280;2022-11-27T04:47:13;16.17;;;6.00;;
25153;SDS011;47555;51.038;6.280;2022-11-27T04:49:39;11.55;;;5.10;;
25153;SDS011;47555;51.038;6.280;2022-11-27T04:52:04;12.85;;;6.20;;
25153;SDS011;47555;51.038;6.280;2022-11-27T04:54:30;13.13;;;6.15;;
25153;SDS011;47555;51.038;6.280;2022-11-27T04:56:55;15.80;;;5.28;;
25153;SDS011;47555;51.038;6.280;2022-11-27T04:59:21;12.40;;;5.38;;
25153;SDS011;47555;51.038;6.280;2022-11-27T05:01:47;13.70;;;5.00;;
25153;SDS011;47555;51.038;6.280;2022-11-27T05:04:12;10.77;;;6.10;;
25153;SDS011;47555;51.038;6.280;2022-11-27T05:06:38;13.02;;;5.85;;
25153;SDS011;47555;51.038;6.280;2022-11-27T05:09:04;13.10;;;6.20;;
25153;SDS011;47555;51.038;6.280;2022-11-27T05:11:29;12.63;;;5.25;;
25153;SDS011;47555;51.038;6.280;2022-11-27T05:13:55;11.20;;;5.15;;
25153;SDS011;47555;51.038;6.280;2022-11-27T05:16:40;15.90;;;5.63;;
25153;SDS011;47555;51.038;6.280;2022-11-27T05:19:08;9.20;;;5.35;;
25153;SDS011;47555;51.038;6.280;2022-11-27T05:21:34;14.43;;;5.85;;
25153;SDS011;47555;51.038;6.280;2022-11-27T05:24:00;13.93;;;5.60;;
25153;SDS011;47555;51.038;6.280;2022-11-27T05:26:26;11.57;;;5.03;;
25153;SDS011;47555;51.038;6.280;2022-11-27T05:28:51;15.73;;;6.05;;
25153;SDS011;47555;51.038;6.280;2022-11-27T05:31:17;14.48;;;4.93;;
25153;SDS011;47555;51.038;6.280;2022-11-27T05:33:42;14.80;;;5.00;;
25153;SDS011;47555;51.038;6.280;2022-11-27T05:36:08;11.85;;;5.78;;
25153;SDS011;47555;51.038;6.280;2022-11-27T05:38:33;16.08;;;5.38;;
25153;SDS011;47555;51.038;6.280;2022-11-27T05:40:59;12.52;;;5.60;;
25153;SDS011;47555;51.038;6.280;2022-11-27T05:43:24;14.07;;;5.40;;
25153;SDS011;47555;51.038;6.280;2022-11-27T05:45:50;10.25;;;5.00;;
25153;SDS011;47555;51.038;6.280;2022-11-27T05:48:15;15.35;;;5.43;;
25153;SDS011;47555;51.038;6.280;2022-11-27T05:50:44;14.57;;;5.78;;
25153;SDS011;47555;51.038;6.280;2022-11-27T05:53:10;13.07;;;5.03;;
25153;SDS011;47555;51.038;6.280;2022-11-27T05:55:35;14.38;;;5.55;;
25153;SDS011;47555;51.038;6.280;2022-11-27T05:58:01;10.57;;;5.50;;
25153;SDS011;47555;51.038;6.280;2022-11-27T06:00:26;12.50;;;5.43;;
25153;SDS011;47555;51.038;6.280;2022-11-27T06:02:54;12.77;;;5.30;;
25153;SDS011;47555;51.038;6.280;2022-11-27T06:05:20;14.15;;;5.07;;
25153;SDS011;47555;51.038;6.280;2022-11-27T06:07:45;15.90;;;5.90;;
25153;SDS011;47555;51.038;6.280;2022-11-27T06:10:11;11.88;;;5.30;;
25153;SDS011;47555;51.038;6.280;2022-11-27T06:12:36;10.60;;;5.28;;
25153;SDS011;47555;51.038;6.280;2022-11-27T06:15:02;12.73;;;5.03;;
25153;SDS011;47555;51.038;6.280;2022-11-27T06:17:28;11.68;;;5.22;;
25153;SDS011;47555;51.038;6.280;2022-11-27T06:19:53;12.52;;;5.40;;
25153;SDS011;47555;51.038;6.280;2022-11-27T06:22:19;14.40;;;5.43;;
25153;SDS011;47555;51.038;6.280;2022-11-27T06:24:44;12.02;;;5.05;;
25153;SDS011;47555;51.038;6.280;2022-11-27T06:27:10;13.65;;;5.80;;
25153;SDS011;47555;51.038;6.280;2022-11-27T06:29:36;12.68;;;5.03;;
25153;SDS011;47555;51.038;6.280;2022-11-27T06:32:02;15.18;;;5.97;;
25153;SDS011;47555;51.038;6.280;2022-11-27T06:34:28;17.00;;;5.93;;
25153;SDS011;47555;51.038;6.280;2022-11-27T06:36:54;11.07;;;5.18;;
25153;SDS011;47555;51.038;6.280;2022-11-27T06:39:19;13.63;;;5.78;;
25153;SDS011;47555;51.038;6.280;2022-11-27T06:41:45;11.40;;;5.03;;
25153;SDS011;47555;51.038;6.280;2022-11-27T06:44:10;15.38;;;5.95;;
25153;SDS011;47555;51.038;6.280;2022-11-27T06:46:36;11.43;;;5.78;;
25153;SDS011;47555;51.038;6.280;2022-11-27T06:49:02;12.43;;;5.07;;
25153;SDS011;47555;51.038;6.280;2022-11-27T06:51:28;11.85;;;5.25;;
25153;SDS011;47555;51.038;6.280;2022-11-27T06:53:55;13.50;;;5.78;;
25153;SDS011;47555;51.038;6.280;2022-11-27T06:56:25;12.95;;;5.25;;
25153;SDS011;47555;51.038;6.280;2022-11-27T06:58:53;15.45;;;5.60;;
25153;SDS011;47555;51.038;6.280;2022-11-27T07:01:20;13.48;;;5.20;;
25153;SDS011;47555;51.038;6.280;2022-11-27T07:03:47;11.52;;;5.05;;
25153;SDS011;47555;51.038;6.280;2022-11-27T07:06:13;12.00;;;5.10;;
25153;SDS011;47555;51.038;6.280;2022-11-27T07:08:41;10.38;;;4.90;;
25153;SDS011;47555;51.038;6.280;2022-11-27T07:11:09;11.45;;;4.80;;
25153;SDS011;47555;51.038;6.280;2022-11-27T07:13:36;13.55;;;5.43;;
25153;SDS011;47555;51.038;6.280;2022-11-27T07:16:03;11.27;;;4.85;;
25153;SDS011;47555;51.038;6.280;2022-11-27T07:18:33;12.05;;;5.10;;
25153;SDS011;47555;51.038;6.280;2022-11-27T07:21:00;11.98;;;5.55;;
25153;SDS011;47555;51.038;6.280;2022-11-27T07:23:26;11.55;;;5.75;;
25153;SDS011;47555;51.038;6.280;2022-11-27T07:25:51;10.30;;;5.18;;
25153;SDS011;47555;51.038;6.280;2022-11-27T07:28:17;14.68;;;5.15;;
25153;SDS011;47555;51.038;6.280;2022-11-27T07:30:42;9.52;;;4.40;;
25153;SDS011;47555;51.038;6.280;2022-11-27T07:33:08;14.02;;;5.30;;
25153;SDS011;47555;51.038;6.280;2022-11-27T07:35:34;15.52;;;4.47;;
25153;SDS011;47555;51.038;6.280;2022-11-27T07:37:59;12.15;;;5.03;;
25153;SDS011;47555;51.038;6.280;2022-11-27T07:40:24;13.98;;;5.30;;
25153;SDS011;47555;51.038;6.280;2022-11-27T07:42:53;11.90;;;4.78;;
25153;SDS011;47555;51.038;6.280;2022-11-27T07:45:19;10.60;;;5.53;;
25153;SDS011;47555;51.038;6.280;2022-11-27T07:47:44;10.93;;;5.55;;
25153;SDS011;47555;51.038;6.280;2022-11-27T07:50:10;11.77;;;5.57;;
25153;SDS011;47555;51.038;6.280;2022-11-27T07:52:36;11.20;;;5.15;;
25153;SDS011;47555;51.038;6.280;2022-11-27T07:55:02;16.88;;;5.03;;
25153;SDS011;47555;51.038;6.280;2022-11-27T07:57:28;12.55;;;5.47;;
25153;SDS011;47555;51.038;6.280;2022-11-27T07:59:54;11.48;;;4.72;;
25153;SDS011;47555;51.038;6.280;2022-11-27T08:02:19;13.15;;;4.95;;
25153;SDS011;47555;51.038;6.280;2022-11-27T08:04:45;12.50;;;5.05;;
25153;SDS011;47555;51.038;6.280;2022-11-27T08:07:11;9.75;;;4.00;;
25153;SDS011;47555;51.038;6.280;2022-11-27T08:09:36;10.45;;;4.45;;
25153;SDS011;47555;51.038;6.280;2022-11-27T08:12:03;10.05;;;4.15;;
25153;SDS011;47555;51.038;6.280;2022-11-27T08:14:29;10.07;;;4.38;;
25153;SDS011;47555;51.038;6.280;2022-11-27T08:16:54;7.72;;;4.75;;
25153;SDS011;47555;51.038;6.280;2022-11-27T08:19:22;11.38;;;4.47;;
25153;SDS011;47555;51.038;6.280;2022-11-27T08:21:48;7.57;;;4.47;;
25153;SDS011;47555;51.038;6.280;2022-11-27T08:24:13;8.98;;;4.13;;
25153;SDS011;47555;51.038;6.280;2022-11-27T08:26:39;7.55;;;4.40;;
25153;SDS011;47555;51.038;6.280;2022-11-27T08:29:04;7.82;;;4.20;;
25153;SDS011;47555;51.038;6.280;2022-11-27T08:31:30;10.50;;;4.20;;
25153;SDS011;47555;51.038;6.280;2022-11-27T08:33:56;10.18;;;4.43;;
25153;SDS011;47555;51.038;6.280;2022-11-27T08:36:23;9.25;;;4.53;;
25153;SDS011;47555;51.038;6.280;2022-11-27T08:38:50;7.90;;;4.30;;
25153;SDS011;47555;51.038;6.280;2022-11-27T08:41:16;7.25;;;3.67;;
25153;SDS011;47555;51.038;6.280;2022-11-27T08:43:41;11.40;;;4.22;;
25153;SDS011;47555;51.038;6.280;2022-11-27T08:46:07;10.43;;;4.15;;
25153;SDS011;47555;51.038;6.280;2022-11-27T08:48:33;6.70;;;3.80;;
25153;SDS011;47555;51.038;6.280;2022-11-27T08:51:03;9.25;;;4.13;;
25153;SDS011;47555;51.038;6.280;2022-11-27T08:53:30;11.10;;;4.37;;
25153;SDS011;47555;51.038;6.280;2022-11-27T08:56:03;7.90;;;4.10;;
25153;SDS011;47555;51.038;6.280;2022-11-27T08:58:29;11.88;;;4.05;;
25153;SDS011;47555;51.038;6.280;2022-11-27T09:00:55;8.98;;;3.83;;
25153;SDS011;47555;51.038;6.280;2022-11-27T09:03:20;7.38;;;4.28;;
25153;SDS011;47555;51.038;6.280;2022-11-27T09:05:46;7.63;;;3.88;;
25153;SDS011;47555;51.038;6.280;2022-11-27T09:08:11;9.90;;;4.50;;
25153;SDS011;47555;51.038;6.280;2022-11-27T09:13:09;9.63;;;4.47;;
25153;SDS011;47555;51.038;6.280;2022-11-27T09:15:35;6.78;;;3.95;;
25153;SDS011;47555;51.038;6.280;2022-11-27T09:18:00;8.32;;;3.67;;
25153;SDS011;47555;51.038;6.280;2022-11-27T09:20:28;5.78;;;3.42;;
25153;SDS011;47555;51.038;6.280;2022-11-27T09:22:53;7.93;;;4.45;;
25153;SDS011;47555;51.038;6.280;2022-11-27T09:25:19;7.25;;;5.10;;
25153;SDS011;47555;51.038;6.280;2022-11-27T09:27:44;5.90;;;4.72;;
25153;SDS011;47555;51.038;6.280;2022-11-27T09:30:10;9.32;;;4.25;;
25153;SDS011;47555;51.038;6.280;2022-11-27T09:32:36;8.65;;;4.65;;
25153;SDS011;47555;51.038;6.280;2022-11-27T09:35:02;8.30;;;4.03;;
25153;SDS011;47555;51.038;6.280;2022-11-27T09:37:30;9.93;;;3.97;;
25153;SDS011;47555;51.038;6.280;2022-11-27T09:39:56;7.40;;;4.07;;
25153;SDS011;47555;51.038;6.280;2022-11-27T09:42:28;5.90;;;4.10;;
25153;SDS011;47555;51.038;6.280;2022-11-27T09:45:04;10.25;;;4.25;;
25153;SDS011;47555;51.038;6.280;2022-11-27T09:50:10;7.60;;;3.55;;
25153;SDS011;47555;51.038;6.280;2022-11-27T09:52:52;7.70;;;3.92;;
25153;SDS011;47555;51.038;6.280;2022-11-27T09:58:01;6.90;;;3.97;;
25153;SDS011;47555;51.038;6.280;2022-11-27T10:00:35;11.35;;;4.28;;
25153;SDS011;47555;51.038;6.280;2022-11-27T10:03:01;8.60;;;4.15;;
25153;SDS011;47555;51.038;6.280;2022-11-27T10:05:40;5.90;;;3.47;;
25153;SDS011;47555;51.038;6.280;2022-11-27T10:08:28;6.65;;;3.35;;
25153;SDS011;47555;51.038;6.280;2022-11-27T10:19:08;7.82;;;3.70;;
25153;SDS011;47555;51.038;6.280;2022-11-27T10:21:54;8.25;;;3.58;;
25153;SDS011;47555;51.038;6.280;2022-11-27T10:24:41;7.93;;;3.45;;
25153;SDS011;47555;51.038;6.280;2022-11-27T10:27:12;6.50;;;3.13;;
25153;SDS011;47555;51.038;6.280;2022-11-27T10:29:47;5.68;;;3.00;;
25153;SDS011;47555;51.038;6.280;2022-11-27T10:32:27;6.32;;;3.33;;
25153;SDS011;47555;51.038;6.280;2022-11-27T10:37:44;7.88;;;3.60;;
25153;SDS011;47555;51.038;6.280;2022-11-27T10:42:43;4.95;;;3.00;;
25153;SDS011;47555;51.038;6.280;2022-11-27T10:45:20;8.90;;;3.25;;
25153;SDS011;47555;51.038;6.280;2022-11-27T10:47:53;5.57;;;3.00;;
25153;SDS011;47555;51.038;6.280;2022-11-27T10:50:19;8.55;;;3.30;;
25153;SDS011;47555;51.038;6.280;2022-11-27T10:52:45;7.65;;;2.95;;
25153;SDS011;47555;51.038;6.280;2022-11-27T10:55:39;7.60;;;3.20;;
25153;SDS011;47555;51.038;6.280;2022-11-27T10:58:33;6.05;;;3.55;;
25153;SDS011;47555;51.038;6.280;2022-11-27T11:01:07;6.28;;;3.00;;
25153;SDS011;47555;51.038;6.280;2022-11-27T11:03:34;5.05;;;3.38;;
25153;SDS011;47555;51.038;6.280;2022-11-27T11:06:01;6.43;;;3.80;;
25153;SDS011;47555;51.038;6.280;2022-11-27T11:08:30;4.93;;;3.10;;
25153;SDS011;47555;51.038;6.280;2022-11-27T11:10:58;6.45;;;3.35;;
25153;SDS011;47555;51.038;6.280;2022-11-27T11:13:26;4.93;;;3.28;;
25153;SDS011;47555;51.038;6.280;2022-11-27T11:16:15;5.55;;;2.80;;
25153;SDS011;47555;51.038;6.280;2022-11-27T11:18:44;5.38;;;2.67;;
25153;SDS011;47555;51.038;6.280;2022-11-27T11:21:32;4.43;;;3.30;;
25153;SDS011;47555;51.038;6.280;2022-11-27T11:26:37;5.20;;;2.47;;
25153;SDS011;47555;51.038;6.280;2022-11-27T11:29:24;5.15;;;3.00;;
25153;SDS011;47555;51.038;6.280;2022-11-27T11:31:51;3.92;;;3.08;;
25153;SDS011;47555;51.038;6.280;2022-11-27T11:34:24;6.00;;;3.08;;
25153;SDS011;47555;51.038;6.280;2022-11-27T11:39:26;5.00;;;2.58;;
25153;SDS011;47555;51.038;6.280;2022-11-27T11:41:55;3.35;;;2.70;;
25153;SDS011;47555;51.038;6.280;2022-11-27T11:44:21;3.47;;;2.75;;
25153;SDS011;47555;51.038;6.280;2022-11-27T11:46:59;4.43;;;2.70;;
25153;SDS011;47555;51.038;6.280;2022-11-27T11:49:25;5.35;;;2.53;;
25153;SDS011;47555;51.038;6.280;2022-11-27T11:51:58;3.95;;;2.50;;
25153;SDS011;47555;51.038;6.280;2022-11-27T11:54:38;4.63;;;2.40;;
25153;SDS011;47555;51.038;6.280;2022-11-27T11:57:24;3.58;;;2.50;;
25153;SDS011;47555;51.038;6.280;2022-11-27T12:00:09;8.13;;;3.50;;
25153;SDS011;47555;51.038;6.280;2022-11-27T12:05:14;6.28;;;2.90;;
25153;SDS011;47555;51.038;6.280;2022-11-27T12:16:31;6.63;;;2.87;;
25153;SDS011;47555;51.038;6.280;2022-11-27T12:22:15;6.45;;;3.15;;
25153;SDS011;47555;51.038;6.280;2022-11-27T12:24:46;4.72;;;2.85;;
25153;SDS011;47555;51.038;6.280;2022-11-27T12:32:41;5.53;;;2.92;;
25153;SDS011;47555;51.038;6.280;2022-11-27T12:35:33;9.32;;;4.13;;
25153;SDS011;47555;51.038;6.280;2022-11-27T12:38:11;9.05;;;4.68;;
25153;SDS011;47555;51.038;6.280;2022-11-27T12:43:39;8.27;;;4.20;;
25153;SDS011;47555;51.038;6.280;2022-11-27T12:49:42;3.78;;;3.15;;
25153;SDS011;47555;51.038;6.280;2022-11-27T12:51:50;5.75;;;2.72;;
25153;SDS011;47555;51.038;6.280;2022-11-27T12:54:24;7.43;;;3.53;;
25153;SDS011;47555;51.038;6.280;2022-11-27T12:57:05;7.32;;;3.90;;
25153;SDS011;47555;51.038;6.280;2022-11-27T12:59:49;11.88;;;4.82;;
25153;SDS011;47555;51.038;6.280;2022-11-27T13:02:43;8.40;;;4.07;;
25153;SDS011;47555;51.038;6.280;2022-11-27T13:05:29;5.85;;;4.10;;
25153;SDS011;47555;51.038;6.280;2022-11-27T13:08:03;4.25;;;3.28;;
25153;SDS011;47555;51.038;6.280;2022-11-27T13:10:31;4.43;;;3.38;;
25153;SDS011;47555;51.038;6.280;2022-11-27T13:13:19;4.18;;;2.92;;
25153;SDS011;47555;51.038;6.280;2022-11-27T13:16:05;5.22;;;3.17;;
25153;SDS011;47555;51.038;6.280;2022-11-27T13:18:44;4.40;;;2.78;;
25153;SDS011;47555;51.038;6.280;2022-11-27T13:21:26;5.30;;;2.90;;
25153;SDS011;47555;51.038;6.280;2022-11-27T13:23:55;7.72;;;3.10;;
25153;SDS011;47555;51.038;6.280;2022-11-27T13:26:32;5.00;;;3.10;;
25153;SDS011;47555;51.038;6.280;2022-11-27T13:29:18;5.65;;;3.10;;
25153;SDS011;47555;51.038;6.280;2022-11-27T13:31:53;4.95;;;2.90;;
25153;SDS011;47555;51.038;6.280;2022-11-27T13:34:22;3.67;;;2.88;;
25153;SDS011;47555;51.038;6.280;2022-11-27T13:36:57;3.40;;;2.30;;
25153;SDS011;47555;51.038;6.280;2022-11-27T13:39:30;5.70;;;3.38;;
25153;SDS011;47555;51.038;6.280;2022-11-27T13:42:03;6.30;;;4.00;;
25153;SDS011;47555;51.038;6.280;2022-11-27T13:44:36;5.05;;;3.17;;
25153;SDS011;47555;51.038;6.280;2022-11-27T13:47:08;3.55;;;2.70;;
25153;SDS011;47555;51.038;6.280;2022-11-27T13:49:37;3.38;;;2.70;;
25153;SDS011;47555;51.038;6.280;2022-11-27T13:52:15;4.35;;;2.60;;
25153;SDS011;47555;51.038;6.280;2022-11-27T13:54:56;4.53;;;2.30;;
25153;SDS011;47555;51.038;6.280;2022-11-27T13:57:23;4.38;;;2.50;;
25153;SDS011;47555;51.038;6.280;2022-11-27T14:00:00;13.27;;;3.47;;
25153;SDS011;47555;51.038;6.280;2022-11-27T14:02:42;7.80;;;2.95;;
25153;SDS011;47555;51.038;6.280;2022-11-27T14:05:14;4.77;;;3.17;;
25153;SDS011;47555;51.038;6.280;2022-11-27T14:07:45;6.63;;;3.25;;
25153;SDS011;47555;51.038;6.280;2022-11-27T14:12:53;7.47;;;2.80;;
25153;SDS011;47555;51.038;6.280;2022-11-27T14:15:34;3.72;;;2.60;;
25153;SDS011;47555;51.038;6.280;2022-11-27T14:20:48;6.25;;;2.88;;
25153;SDS011;47555;51.038;6.280;2022-11-27T14:23:35;3.17;;;2.28;;
25153;SDS011;47555;51.038;6.280;2022-11-27T14:28:39;6.38;;;2.88;;
25153;SDS011;47555;51.038;6.280;2022-11-27T14:33:59;6.80;;;3.00;;
25153;SDS011;47555;51.038;6.280;2022-11-27T14:36:30;5.30;;;2.65;;
25153;SDS011;47555;51.038;6.280;2022-11-27T14:41:25;5.03;;;3.05;;
25153;SDS011;47555;51.038;6.280;2022-11-27T14:44:02;5.68;;;4.10;;
25153;SDS011;47555;51.038;6.280;2022-11-27T14:46:29;3.63;;;2.47;;
25153;SDS011;47555;51.038;6.280;2022-11-27T14:48:57;6.53;;;2.55;;
25153;SDS011;47555;51.038;6.280;2022-11-27T14:51:23;5.07;;;2.50;;
25153;SDS011;47555;51.038;6.280;2022-11-27T14:53:56;4.55;;;2.63;;
25153;SDS011;47555;51.038;6.280;2022-11-27T14:56:27;5.80;;;3.30;;
25153;SDS011;47555;51.038;6.280;2022-11-27T14:58:57;5.35;;;2.90;;
25153;SDS011;47555;51.038;6.280;2022-11-27T15:01:26;6.57;;;2.63;;
25153;SDS011;47555;51.038;6.280;2022-11-27T15:03:57;4.57;;;2.58;;
25153;SDS011;47555;51.038;6.280;2022-11-27T15:06:39;5.43;;;2.85;;
25153;SDS011;47555;51.038;6.280;2022-11-27T15:09:20;2.30;;;2.10;;
25153;SDS011;47555;51.038;6.280;2022-11-27T15:11:59;4.15;;;2.40;;
25153;SDS011;47555;51.038;6.280;2022-11-27T15:14:32;5.57;;;2.58;;
25153;SDS011;47555;51.038;6.280;2022-11-27T15:16:59;5.40;;;2.63;;
25153;SDS011;47555;51.038;6.280;2022-11-27T15:19:28;3.63;;;2.67;;
25153;SDS011;47555;51.038;6.280;2022-11-27T15:21:56;6.55;;;3.08;;
25153;SDS011;47555;51.038;6.280;2022-11-27T15:24:32;4.50;;;2.88;;
25153;SDS011;47555;51.038;6.280;2022-11-27T15:27:21;4.95;;;2.80;;
25153;SDS011;47555;51.038;6.280;2022-11-27T15:32:18;4.63;;;3.20;;
25153;SDS011;47555;51.038;6.280;2022-11-27T15:34:45;5.43;;;3.00;;
25153;SDS011;47555;51.038;6.280;2022-11-27T15:39:54;5.60;;;2.72;;
25153;SDS011;47555;51.038;6.280;2022-11-27T15:42:21;4.97;;;2.97;;
25153;SDS011;47555;51.038;6.280;2022-11-27T15:44:48;4.53;;;3.05;;
25153;SDS011;47555;51.038;6.280;2022-11-27T15:47:25;5.38;;;3.25;;
25153;SDS011;47555;51.038;6.280;2022-11-27T15:49:59;3.70;;;3.00;;
25153;SDS011;47555;51.038;6.280;2022-11-27T15:52:25;7.22;;;3.33;;
25153;SDS011;47555;51.038;6.280;2022-11-27T15:54:51;5.10;;;3.58;;
25153;SDS011;47555;51.038;6.280;2022-11-27T15:57:17;5.93;;;2.97;;
25153;SDS011;47555;51.038;6.280;2022-11-27T15:59:43;3.85;;;2.92;;
25153;SDS011;47555;51.038;6.280;2022-11-27T16:02:09;5.90;;;3.53;;
25153;SDS011;47555;51.038;6.280;2022-11-27T16:04:35;4.55;;;3.20;;
25153;SDS011;47555;51.038;6.280;2022-11-27T16:07:01;5.18;;;3.53;;
25153;SDS011;47555;51.038;6.280;2022-11-27T16:09:27;4.65;;;2.97;;
25153;SDS011;47555;51.038;6.280;2022-11-27T16:11:52;5.88;;;2.92;;
25153;SDS011;47555;51.038;6.280;2022-11-27T16:14:18;6.97;;;3.80;;
25153;SDS011;47555;51.038;6.280;2022-11-27T16:16:43;5.68;;;3.00;;
25153;SDS011;47555;51.038;6.280;2022-11-27T16:19:12;5.13;;;3.33;;
25153;SDS011;47555;51.038;6.280;2022-11-27T16:21:39;6.40;;;3.30;;
25153;SDS011;47555;51.038;6.280;2022-11-27T16:24:06;7.22;;;3.40;;
25153;SDS011;47555;51.038;6.280;2022-11-27T16:26:33;5.80;;;3.10;;
25153;SDS011;47555;51.038;6.280;2022-11-27T16:29:00;6.75;;;3.67;;
25153;SDS011;47555;51.038;6.280;2022-11-27T16:31:26;4.40;;;3.25;;
25153;SDS011;47555;51.038;6.280;2022-11-27T16:33:52;4.93;;;3.38;;
25153;SDS011;47555;51.038;6.280;2022-11-27T16:36:18;6.65;;;3.63;;
25153;SDS011;47555;51.038;6.280;2022-11-27T16:38:44;5.82;;;4.05;;
25153;SDS011;47555;51.038;6.280;2022-11-27T16:41:11;6.35;;;3.33;;
25153;SDS011;47555;51.038;6.280;2022-11-27T16:43:40;5.03;;;3.35;;
25153;SDS011;47555;51.038;6.280;2022-11-27T16:46:17;4.90;;;3.45;;
25153;SDS011;47555;51.038;6.280;2022-11-27T16:48:44;4.18;;;2.97;;